ENCN/KRS METAR and TAF weather

Enter ICAO airport designator
Station Type Date Time Source
ENCN METAR 2022/01/29 10:50 UTC NOAA

ENCN 291050Z 24022G34KT 9000 -SHRA FEW006 BKN016 09/07 Q0989


Station Type Date Time Source
ENCN Decoded METAR 2022/01/29 10:50 UTC NOAA

Kristiansand / Kjevik, Norway (ENCN) 58-12N 008-05E 17M
Jan 29, 2022 - 05:50 AM EST / 2022.01.29 1050 UTC
Wind: from the WSW (240 degrees) at 25 MPH (22 KT) gusting to 39 MPH (34 KT):0
Visibility: 5 mile(s):0
Sky conditions: mostly cloudy
Weather: light rain showers
Temperature: 48 F (9 C)
Dew Point: 44 F (7 C)
Relative Humidity: 87%
Pressure (altimeter): 29.21 in. Hg (0989 hPa)
ob: ENCN 291050Z 24022G34KT 9000 -SHRA FEW006 BKN016 09/07 Q0989
cycle: 11

Station Type Date Time Source
ENCN TAF 2016/05/06 12:39 UTC NOAA

TAF TAF ENCN 061100Z 0612/0712 14008KT 9999 FEW040

Example: see airport list